Billerica, Massachusetts
Current Conditions -  °F | °C
As of 3:56 PM on Sunday 21 Dec 2014 (Local Time) from KBED Reporting Station
Light Snow Light Snow  
Wind Chill: 28°   Ceiling: 1600
Heat Index: 33°   Visibility: 6mi
Dew Point: 26°   Wind: 6mph
Humidity: 75%   Direction: 10°N
Pressure: 30.3"   Gusts: NA
Location:  42.56°N, 71.27°W
Report Text: KBED 212056Z 01005KT 6SM -SN OVC016 01/M03 A3030 RMK AO2 SNE12B28 SLP277 P0000 60000 T00061033 53005
Loading
Personal Weather Stations






























Interactive Weather Map New forecast layout! Learn more

10-Day Weather Forecast

Advertisements
Track Severe Weather on mobile